sensor_id;sensor_type;location;lat;lon;timestamp;P1;durP1;ratioP1;P2;durP2;ratioP2
25111;SDS011;13092;51.996;4.458;2023-12-22T00:00:57;12.93;;;11.93;;
25111;SDS011;13092;51.996;4.458;2023-12-22T00:03:28;14.90;;;12.57;;
25111;SDS011;13092;51.996;4.458;2023-12-22T00:05:56;16.63;;;15.05;;
25111;SDS011;13092;51.996;4.458;2023-12-22T00:08:25;15.95;;;14.20;;
25111;SDS011;13092;51.996;4.458;2023-12-22T00:10:53;12.43;;;11.32;;
25111;SDS011;13092;51.996;4.458;2023-12-22T00:13:21;9.60;;;8.80;;
25111;SDS011;13092;51.996;4.458;2023-12-22T00:15:51;12.73;;;7.70;;
25111;SDS011;13092;51.996;4.458;2023-12-22T00:18:21;9.30;;;8.40;;
25111;SDS011;13092;51.996;4.458;2023-12-22T00:20:52;11.82;;;8.13;;
25111;SDS011;13092;51.996;4.458;2023-12-22T00:23:20;11.07;;;9.23;;
25111;SDS011;13092;51.996;4.458;2023-12-22T00:25:49;16.88;;;11.88;;
25111;SDS011;13092;51.996;4.458;2023-12-22T00:28:17;13.95;;;12.60;;
25111;SDS011;13092;51.996;4.458;2023-12-22T00:30:45;10.32;;;8.82;;
25111;SDS011;13092;51.996;4.458;2023-12-22T00:33:14;8.85;;;6.60;;
25111;SDS011;13092;51.996;4.458;2023-12-22T00:35:44;6.50;;;4.93;;
25111;SDS011;13092;51.996;4.458;2023-12-22T00:38:12;8.57;;;4.43;;
25111;SDS011;13092;51.996;4.458;2023-12-22T00:40:40;7.70;;;4.78;;
25111;SDS011;13092;51.996;4.458;2023-12-22T00:43:09;7.50;;;3.92;;
25111;SDS011;13092;51.996;4.458;2023-12-22T00:45:37;8.68;;;4.32;;
25111;SDS011;13092;51.996;4.458;2023-12-22T00:48:06;5.30;;;3.25;;
25111;SDS011;13092;51.996;4.458;2023-12-22T00:50:34;5.88;;;3.30;;
25111;SDS011;13092;51.996;4.458;2023-12-22T00:53:04;5.72;;;3.70;;
25111;SDS011;13092;51.996;4.458;2023-12-22T00:55:32;6.78;;;3.13;;
25111;SDS011;13092;51.996;4.458;2023-12-22T00:58:00;4.70;;;2.33;;
25111;SDS011;13092;51.996;4.458;2023-12-22T01:00:29;7.32;;;2.92;;
25111;SDS011;13092;51.996;4.458;2023-12-22T01:02:57;25.60;;;3.08;;
25111;SDS011;13092;51.996;4.458;2023-12-22T01:05:26;3.10;;;2.00;;
25111;SDS011;13092;51.996;4.458;2023-12-22T01:07:55;7.35;;;2.88;;
25111;SDS011;13092;51.996;4.458;2023-12-22T01:10:24;7.78;;;2.00;;
25111;SDS011;13092;51.996;4.458;2023-12-22T01:12:53;3.42;;;2.35;;
25111;SDS011;13092;51.996;4.458;2023-12-22T01:15:21;4.15;;;2.20;;
25111;SDS011;13092;51.996;4.458;2023-12-22T01:17:50;5.32;;;2.33;;
25111;SDS011;13092;51.996;4.458;2023-12-22T01:20:19;3.67;;;2.00;;
25111;SDS011;13092;51.996;4.458;2023-12-22T01:22:47;4.82;;;2.30;;
25111;SDS011;13092;51.996;4.458;2023-12-22T01:25:16;4.85;;;2.60;;
25111;SDS011;13092;51.996;4.458;2023-12-22T01:27:46;6.85;;;2.42;;
25111;SDS011;13092;51.996;4.458;2023-12-22T01:30:16;5.63;;;2.95;;
25111;SDS011;13092;51.996;4.458;2023-12-22T01:32:44;11.10;;;2.28;;
25111;SDS011;13092;51.996;4.458;2023-12-22T01:35:13;5.28;;;1.75;;
25111;SDS011;13092;51.996;4.458;2023-12-22T01:37:41;6.00;;;2.08;;
25111;SDS011;13092;51.996;4.458;2023-12-22T01:40:09;9.95;;;2.25;;
25111;SDS011;13092;51.996;4.458;2023-12-22T01:42:38;6.15;;;1.58;;
25111;SDS011;13092;51.996;4.458;2023-12-22T01:45:09;3.58;;;1.48;;
25111;SDS011;13092;51.996;4.458;2023-12-22T01:47:37;16.10;;;2.83;;
25111;SDS011;13092;51.996;4.458;2023-12-22T01:50:06;6.13;;;1.73;;
25111;SDS011;13092;51.996;4.458;2023-12-22T01:52:37;9.82;;;2.45;;
25111;SDS011;13092;51.996;4.458;2023-12-22T01:55:07;6.18;;;1.63;;
25111;SDS011;13092;51.996;4.458;2023-12-22T01:57:38;4.93;;;1.90;;
25111;SDS011;13092;51.996;4.458;2023-12-22T02:00:10;5.63;;;2.33;;
25111;SDS011;13092;51.996;4.458;2023-12-22T02:02:39;7.65;;;2.35;;
25111;SDS011;13092;51.996;4.458;2023-12-22T02:05:10;5.03;;;1.92;;
25111;SDS011;13092;51.996;4.458;2023-12-22T02:07:39;3.83;;;1.88;;
25111;SDS011;13092;51.996;4.458;2023-12-22T02:10:09;13.10;;;3.65;;
25111;SDS011;13092;51.996;4.458;2023-12-22T02:12:38;5.63;;;1.83;;
25111;SDS011;13092;51.996;4.458;2023-12-22T02:15:07;5.80;;;2.13;;
25111;SDS011;13092;51.996;4.458;2023-12-22T02:17:39;7.07;;;1.67;;
25111;SDS011;13092;51.996;4.458;2023-12-22T02:20:12;4.45;;;1.88;;
25111;SDS011;13092;51.996;4.458;2023-12-22T02:22:42;6.15;;;2.20;;
25111;SDS011;13092;51.996;4.458;2023-12-22T02:25:11;5.80;;;1.92;;
25111;SDS011;13092;51.996;4.458;2023-12-22T02:27:40;5.18;;;1.80;;
25111;SDS011;13092;51.996;4.458;2023-12-22T02:30:17;4.03;;;1.60;;
25111;SDS011;13092;51.996;4.458;2023-12-22T02:32:53;10.32;;;3.20;;
25111;SDS011;13092;51.996;4.458;2023-12-22T02:35:24;6.60;;;2.13;;
25111;SDS011;13092;51.996;4.458;2023-12-22T02:37:58;8.52;;;3.65;;
25111;SDS011;13092;51.996;4.458;2023-12-22T02:40:29;7.28;;;2.42;;
25111;SDS011;13092;51.996;4.458;2023-12-22T02:42:58;7.47;;;2.03;;
25111;SDS011;13092;51.996;4.458;2023-12-22T02:45:28;3.95;;;2.38;;
25111;SDS011;13092;51.996;4.458;2023-12-22T02:47:58;10.95;;;3.05;;
25111;SDS011;13092;51.996;4.458;2023-12-22T02:50:30;5.25;;;1.60;;
25111;SDS011;13092;51.996;4.458;2023-12-22T02:52:59;11.27;;;1.73;;
25111;SDS011;13092;51.996;4.458;2023-12-22T02:55:28;4.80;;;2.25;;
25111;SDS011;13092;51.996;4.458;2023-12-22T02:57:56;4.95;;;1.80;;
25111;SDS011;13092;51.996;4.458;2023-12-22T03:00:25;4.55;;;1.75;;
25111;SDS011;13092;51.996;4.458;2023-12-22T03:02:53;13.25;;;2.65;;
25111;SDS011;13092;51.996;4.458;2023-12-22T03:05:24;4.60;;;1.83;;
25111;SDS011;13092;51.996;4.458;2023-12-22T03:07:52;4.28;;;1.77;;
25111;SDS011;13092;51.996;4.458;2023-12-22T03:10:22;7.30;;;1.58;;
25111;SDS011;13092;51.996;4.458;2023-12-22T03:12:51;5.43;;;1.65;;
25111;SDS011;13092;51.996;4.458;2023-12-22T03:15:19;2.78;;;1.60;;
25111;SDS011;13092;51.996;4.458;2023-12-22T03:17:48;4.65;;;2.15;;
25111;SDS011;13092;51.996;4.458;2023-12-22T03:20:17;8.75;;;2.15;;
25111;SDS011;13092;51.996;4.458;2023-12-22T03:22:45;11.45;;;1.80;;
25111;SDS011;13092;51.996;4.458;2023-12-22T03:25:13;10.63;;;2.10;;
25111;SDS011;13092;51.996;4.458;2023-12-22T03:27:44;4.57;;;1.60;;
25111;SDS011;13092;51.996;4.458;2023-12-22T03:30:12;9.15;;;2.95;;
25111;SDS011;13092;51.996;4.458;2023-12-22T03:32:41;6.85;;;1.92;;
25111;SDS011;13092;51.996;4.458;2023-12-22T03:35:09;7.22;;;2.10;;
25111;SDS011;13092;51.996;4.458;2023-12-22T03:37:37;4.68;;;1.40;;
25111;SDS011;13092;51.996;4.458;2023-12-22T03:40:06;4.68;;;1.58;;
25111;SDS011;13092;51.996;4.458;2023-12-22T03:42:36;4.32;;;1.77;;
25111;SDS011;13092;51.996;4.458;2023-12-22T03:45:07;8.73;;;1.50;;
25111;SDS011;13092;51.996;4.458;2023-12-22T03:47:36;6.50;;;2.00;;
25111;SDS011;13092;51.996;4.458;2023-12-22T03:50:05;5.60;;;1.45;;
25111;SDS011;13092;51.996;4.458;2023-12-22T03:52:35;7.32;;;1.48;;
25111;SDS011;13092;51.996;4.458;2023-12-22T03:55:06;7.10;;;2.28;;
25111;SDS011;13092;51.996;4.458;2023-12-22T03:57:34;11.23;;;2.50;;
25111;SDS011;13092;51.996;4.458;2023-12-22T04:00:03;6.53;;;1.75;;
25111;SDS011;13092;51.996;4.458;2023-12-22T04:02:33;5.10;;;1.60;;
25111;SDS011;13092;51.996;4.458;2023-12-22T04:05:01;5.40;;;1.48;;
25111;SDS011;13092;51.996;4.458;2023-12-22T04:07:30;3.05;;;1.55;;
25111;SDS011;13092;51.996;4.458;2023-12-22T04:09:58;13.20;;;2.55;;
25111;SDS011;13092;51.996;4.458;2023-12-22T04:12:28;5.13;;;1.75;;
25111;SDS011;13092;51.996;4.458;2023-12-22T04:14:56;4.00;;;1.95;;
25111;SDS011;13092;51.996;4.458;2023-12-22T04:17:25;3.40;;;1.65;;
25111;SDS011;13092;51.996;4.458;2023-12-22T04:19:55;2.50;;;1.88;;
25111;SDS011;13092;51.996;4.458;2023-12-22T04:22:24;5.63;;;2.00;;
25111;SDS011;13092;51.996;4.458;2023-12-22T04:24:52;4.05;;;1.52;;
25111;SDS011;13092;51.996;4.458;2023-12-22T04:27:20;4.20;;;2.28;;
25111;SDS011;13092;51.996;4.458;2023-12-22T04:29:49;4.15;;;3.25;;
25111;SDS011;13092;51.996;4.458;2023-12-22T04:32:17;6.00;;;5.43;;
25111;SDS011;13092;51.996;4.458;2023-12-22T04:34:46;12.93;;;9.65;;
25111;SDS011;13092;51.996;4.458;2023-12-22T04:37:16;17.50;;;16.10;;
25111;SDS011;13092;51.996;4.458;2023-12-22T04:39:44;22.17;;;20.15;;
25111;SDS011;13092;51.996;4.458;2023-12-22T04:42:12;23.10;;;21.52;;
25111;SDS011;13092;51.996;4.458;2023-12-22T04:44:40;29.95;;;27.38;;
25111;SDS011;13092;51.996;4.458;2023-12-22T04:47:09;30.85;;;28.58;;
25111;SDS011;13092;51.996;4.458;2023-12-22T04:49:39;31.33;;;29.02;;
25111;SDS011;13092;51.996;4.458;2023-12-22T04:52:07;27.23;;;25.20;;
25111;SDS011;13092;51.996;4.458;2023-12-22T04:54:38;27.05;;;25.20;;
25111;SDS011;13092;51.996;4.458;2023-12-22T04:57:06;25.67;;;23.98;;
25111;SDS011;13092;51.996;4.458;2023-12-22T04:59:35;25.92;;;23.63;;
25111;SDS011;13092;51.996;4.458;2023-12-22T05:02:03;24.42;;;22.52;;
25111;SDS011;13092;51.996;4.458;2023-12-22T05:04:32;24.10;;;22.48;;
25111;SDS011;13092;51.996;4.458;2023-12-22T05:07:01;24.38;;;22.48;;
25111;SDS011;13092;51.996;4.458;2023-12-22T05:09:33;21.27;;;19.85;;
25111;SDS011;13092;51.996;4.458;2023-12-22T05:12:03;19.73;;;18.08;;
25111;SDS011;13092;51.996;4.458;2023-12-22T05:14:31;22.88;;;17.65;;
25111;SDS011;13092;51.996;4.458;2023-12-22T05:17:00;18.17;;;16.77;;
25111;SDS011;13092;51.996;4.458;2023-12-22T05:19:28;19.70;;;18.10;;
25111;SDS011;13092;51.996;4.458;2023-12-22T05:21:57;24.75;;;23.02;;
25111;SDS011;13092;51.996;4.458;2023-12-22T05:24:26;30.52;;;26.38;;
25111;SDS011;13092;51.996;4.458;2023-12-22T05:26:55;32.50;;;30.00;;
25111;SDS011;13092;51.996;4.458;2023-12-22T05:29:24;37.22;;;33.45;;
25111;SDS011;13092;51.996;4.458;2023-12-22T05:31:53;34.88;;;32.42;;
25111;SDS011;13092;51.996;4.458;2023-12-22T05:34:21;35.78;;;33.08;;
25111;SDS011;13092;51.996;4.458;2023-12-22T05:36:50;35.45;;;32.80;;
25111;SDS011;13092;51.996;4.458;2023-12-22T05:39:18;40.15;;;36.67;;
25111;SDS011;13092;51.996;4.458;2023-12-22T05:41:46;38.40;;;35.25;;
25111;SDS011;13092;51.996;4.458;2023-12-22T05:44:17;37.90;;;35.28;;
25111;SDS011;13092;51.996;4.458;2023-12-22T05:46:47;38.45;;;35.15;;
25111;SDS011;13092;51.996;4.458;2023-12-22T05:49:15;38.92;;;35.30;;
25111;SDS011;13092;51.996;4.458;2023-12-22T05:51:44;39.70;;;36.08;;
25111;SDS011;13092;51.996;4.458;2023-12-22T05:54:13;39.08;;;35.95;;
25111;SDS011;13092;51.996;4.458;2023-12-22T05:56:41;37.53;;;34.72;;
25111;SDS011;13092;51.996;4.458;2023-12-22T05:59:09;39.15;;;35.95;;
25111;SDS011;13092;51.996;4.458;2023-12-22T06:01:38;36.97;;;34.15;;
25111;SDS011;13092;51.996;4.458;2023-12-22T06:04:08;38.03;;;34.95;;
25111;SDS011;13092;51.996;4.458;2023-12-22T06:06:36;37.58;;;34.42;;
25111;SDS011;13092;51.996;4.458;2023-12-22T06:09:05;37.45;;;34.47;;
25111;SDS011;13092;51.996;4.458;2023-12-22T06:11:33;37.17;;;33.90;;
25111;SDS011;13092;51.996;4.458;2023-12-22T06:14:01;37.08;;;34.33;;
25111;SDS011;13092;51.996;4.458;2023-12-22T06:16:30;37.92;;;35.03;;
25111;SDS011;13092;51.996;4.458;2023-12-22T06:18:59;37.10;;;34.25;;
25111;SDS011;13092;51.996;4.458;2023-12-22T06:21:29;37.90;;;34.90;;
25111;SDS011;13092;51.996;4.458;2023-12-22T06:23:57;36.45;;;33.42;;
25111;SDS011;13092;51.996;4.458;2023-12-22T06:26:28;37.20;;;33.83;;
25111;SDS011;13092;51.996;4.458;2023-12-22T06:28:56;37.25;;;34.33;;
25111;SDS011;13092;51.996;4.458;2023-12-22T06:31:25;38.35;;;35.28;;
25111;SDS011;13092;51.996;4.458;2023-12-22T06:33:54;39.55;;;36.28;;
25111;SDS011;13092;51.996;4.458;2023-12-22T06:36:28;36.90;;;33.72;;
25111;SDS011;13092;51.996;4.458;2023-12-22T06:38:59;36.33;;;33.50;;
25111;SDS011;13092;51.996;4.458;2023-12-22T06:41:28;37.22;;;34.30;;
25111;SDS011;13092;51.996;4.458;2023-12-22T06:43:59;35.58;;;32.65;;
25111;SDS011;13092;51.996;4.458;2023-12-22T06:46:28;36.08;;;32.33;;
25111;SDS011;13092;51.996;4.458;2023-12-22T06:49:00;36.22;;;33.38;;
25111;SDS011;13092;51.996;4.458;2023-12-22T06:51:34;33.85;;;31.52;;
25111;SDS011;13092;51.996;4.458;2023-12-22T06:54:03;34.78;;;32.08;;
25111;SDS011;13092;51.996;4.458;2023-12-22T06:56:33;34.33;;;31.60;;
25111;SDS011;13092;51.996;4.458;2023-12-22T06:59:02;34.28;;;31.42;;
25111;SDS011;13092;51.996;4.458;2023-12-22T07:01:32;35.38;;;32.58;;
25111;SDS011;13092;51.996;4.458;2023-12-22T07:04:03;34.90;;;32.35;;
25111;SDS011;13092;51.996;4.458;2023-12-22T07:09:35;34.17;;;31.88;;
25111;SDS011;13092;51.996;4.458;2023-12-22T07:12:03;38.28;;;34.15;;
25111;SDS011;13092;51.996;4.458;2023-12-22T07:14:34;36.03;;;33.58;;
25111;SDS011;13092;51.996;4.458;2023-12-22T07:17:02;39.17;;;35.90;;
25111;SDS011;13092;51.996;4.458;2023-12-22T07:19:31;38.08;;;35.17;;
25111;SDS011;13092;51.996;4.458;2023-12-22T07:22:01;37.30;;;34.67;;
25111;SDS011;13092;51.996;4.458;2023-12-22T07:24:30;39.15;;;35.75;;
25111;SDS011;13092;51.996;4.458;2023-12-22T07:26:59;39.40;;;35.80;;
25111;SDS011;13092;51.996;4.458;2023-12-22T07:29:28;43.17;;;38.90;;
25111;SDS011;13092;51.996;4.458;2023-12-22T07:31:56;38.67;;;35.40;;
25111;SDS011;13092;51.996;4.458;2023-12-22T07:34:26;40.35;;;36.50;;
25111;SDS011;13092;51.996;4.458;2023-12-22T07:36:55;39.17;;;35.55;;
25111;SDS011;13092;51.996;4.458;2023-12-22T07:39:34;38.20;;;34.92;;
25111;SDS011;13092;51.996;4.458;2023-12-22T07:42:04;37.85;;;34.50;;
25111;SDS011;13092;51.996;4.458;2023-12-22T07:44:33;38.90;;;35.60;;
25111;SDS011;13092;51.996;4.458;2023-12-22T07:47:01;37.30;;;33.95;;
25111;SDS011;13092;51.996;4.458;2023-12-22T07:49:31;35.28;;;32.58;;
25111;SDS011;13092;51.996;4.458;2023-12-22T07:52:01;34.65;;;31.85;;
25111;SDS011;13092;51.996;4.458;2023-12-22T07:54:29;37.08;;;33.97;;
25111;SDS011;13092;51.996;4.458;2023-12-22T07:56:59;35.90;;;32.88;;
25111;SDS011;13092;51.996;4.458;2023-12-22T07:59:27;37.42;;;34.33;;
25111;SDS011;13092;51.996;4.458;2023-12-22T08:01:58;37.13;;;33.92;;
25111;SDS011;13092;51.996;4.458;2023-12-22T08:04:27;31.70;;;28.73;;
25111;SDS011;13092;51.996;4.458;2023-12-22T08:06:58;27.08;;;24.63;;
25111;SDS011;13092;51.996;4.458;2023-12-22T08:09:26;27.10;;;24.80;;
25111;SDS011;13092;51.996;4.458;2023-12-22T08:11:55;34.05;;;25.25;;
25111;SDS011;13092;51.996;4.458;2023-12-22T08:14:25;29.33;;;26.73;;
25111;SDS011;13092;51.996;4.458;2023-12-22T08:16:53;28.23;;;25.70;;
25111;SDS011;13092;51.996;4.458;2023-12-22T08:19:21;27.17;;;24.90;;
25111;SDS011;13092;51.996;4.458;2023-12-22T08:21:54;27.38;;;25.00;;
25111;SDS011;13092;51.996;4.458;2023-12-22T08:24:24;28.30;;;25.65;;
25111;SDS011;13092;51.996;4.458;2023-12-22T08:26:52;29.23;;;26.27;;
25111;SDS011;13092;51.996;4.458;2023-12-22T08:29:21;28.20;;;25.90;;
25111;SDS011;13092;51.996;4.458;2023-12-22T08:31:50;25.98;;;23.27;;
25111;SDS011;13092;51.996;4.458;2023-12-22T08:34:19;24.13;;;22.15;;
25111;SDS011;13092;51.996;4.458;2023-12-22T08:36:47;25.08;;;22.40;;
25111;SDS011;13092;51.996;4.458;2023-12-22T08:39:16;23.70;;;21.75;;
25111;SDS011;13092;51.996;4.458;2023-12-22T08:41:44;23.98;;;21.88;;
25111;SDS011;13092;51.996;4.458;2023-12-22T08:44:13;25.13;;;22.92;;
25111;SDS011;13092;51.996;4.458;2023-12-22T08:46:42;25.00;;;23.00;;
25111;SDS011;13092;51.996;4.458;2023-12-22T08:49:12;25.58;;;23.42;;
25111;SDS011;13092;51.996;4.458;2023-12-22T08:51:40;24.80;;;22.85;;
25111;SDS011;13092;51.996;4.458;2023-12-22T08:54:09;24.98;;;22.98;;
25111;SDS011;13092;51.996;4.458;2023-12-22T08:56:38;24.75;;;22.65;;
25111;SDS011;13092;51.996;4.458;2023-12-22T08:59:06;26.33;;;23.90;;
25111;SDS011;13092;51.996;4.458;2023-12-22T09:01:35;25.75;;;23.45;;
25111;SDS011;13092;51.996;4.458;2023-12-22T09:04:04;25.17;;;22.98;;
25111;SDS011;13092;51.996;4.458;2023-12-22T09:06:36;26.05;;;23.73;;
25111;SDS011;13092;51.996;4.458;2023-12-22T09:09:05;26.35;;;24.17;;
25111;SDS011;13092;51.996;4.458;2023-12-22T09:11:35;29.02;;;26.13;;
25111;SDS011;13092;51.996;4.458;2023-12-22T09:14:04;27.70;;;25.30;;
25111;SDS011;13092;51.996;4.458;2023-12-22T09:16:36;26.77;;;24.58;;
25111;SDS011;13092;51.996;4.458;2023-12-22T09:19:05;27.08;;;24.50;;
25111;SDS011;13092;51.996;4.458;2023-12-22T09:21:34;26.75;;;24.50;;
25111;SDS011;13092;51.996;4.458;2023-12-22T09:24:04;26.45;;;24.30;;
25111;SDS011;13092;51.996;4.458;2023-12-22T09:26:32;28.00;;;25.20;;
25111;SDS011;13092;51.996;4.458;2023-12-22T09:29:01;27.35;;;25.15;;
25111;SDS011;13092;51.996;4.458;2023-12-22T09:31:28;27.88;;;25.42;;
25111;SDS011;13092;51.996;4.458;2023-12-22T09:33:59;28.13;;;25.73;;
25111;SDS011;13092;51.996;4.458;2023-12-22T09:36:29;28.75;;;26.27;;
25111;SDS011;13092;51.996;4.458;2023-12-22T09:38:57;27.70;;;25.30;;
25111;SDS011;13092;51.996;4.458;2023-12-22T09:41:28;28.27;;;25.77;;
25111;SDS011;13092;51.996;4.458;2023-12-22T09:43:56;28.33;;;25.73;;
25111;SDS011;13092;51.996;4.458;2023-12-22T09:46:28;28.98;;;26.05;;
25111;SDS011;13092;51.996;4.458;2023-12-22T09:49:00;28.67;;;26.17;;
25111;SDS011;13092;51.996;4.458;2023-12-22T09:51:30;29.08;;;26.48;;
25111;SDS011;13092;51.996;4.458;2023-12-22T09:53:59;28.45;;;26.05;;
25111;SDS011;13092;51.996;4.458;2023-12-22T09:56:32;29.45;;;26.85;;
25111;SDS011;13092;51.996;4.458;2023-12-22T09:59:02;29.65;;;26.60;;
25111;SDS011;13092;51.996;4.458;2023-12-22T10:01:31;29.55;;;26.95;;
25111;SDS011;13092;51.996;4.458;2023-12-22T10:04:01;29.33;;;26.67;;
25111;SDS011;13092;51.996;4.458;2023-12-22T10:06:30;30.23;;;27.63;;
25111;SDS011;13092;51.996;4.458;2023-12-22T10:08:58;30.75;;;28.13;;
25111;SDS011;13092;51.996;4.458;2023-12-22T10:11:26;29.83;;;27.42;;
25111;SDS011;13092;51.996;4.458;2023-12-22T10:13:58;29.70;;;27.10;;
25111;SDS011;13092;51.996;4.458;2023-12-22T10:16:30;31.42;;;28.48;;
25111;SDS011;13092;51.996;4.458;2023-12-22T10:19:03;31.17;;;28.55;;
25111;SDS011;13092;51.996;4.458;2023-12-22T10:21:31;31.48;;;28.88;;
25111;SDS011;13092;51.996;4.458;2023-12-22T10:24:01;30.83;;;28.15;;
25111;SDS011;13092;51.996;4.458;2023-12-22T10:26:30;30.70;;;28.02;;
25111;SDS011;13092;51.996;4.458;2023-12-22T10:29:00;32.13;;;29.30;;
25111;SDS011;13092;51.996;4.458;2023-12-22T10:31:38;31.70;;;28.77;;
25111;SDS011;13092;51.996;4.458;2023-12-22T10:34:07;31.52;;;28.65;;
25111;SDS011;13092;51.996;4.458;2023-12-22T10:36:35;30.98;;;28.38;;
25111;SDS011;13092;51.996;4.458;2023-12-22T10:39:03;33.10;;;30.02;;
25111;SDS011;13092;51.996;4.458;2023-12-22T10:41:32;31.63;;;29.05;;
25111;SDS011;13092;51.996;4.458;2023-12-22T10:44:02;31.90;;;29.20;;
25111;SDS011;13092;51.996;4.458;2023-12-22T10:46:30;31.80;;;29.10;;
25111;SDS011;13092;51.996;4.458;2023-12-22T10:49:01;31.88;;;28.95;;
25111;SDS011;13092;51.996;4.458;2023-12-22T10:51:30;32.28;;;29.65;;
25111;SDS011;13092;51.996;4.458;2023-12-22T10:53:59;31.75;;;29.15;;
25111;SDS011;13092;51.996;4.458;2023-12-22T10:56:28;32.70;;;29.85;;
25111;SDS011;13092;51.996;4.458;2023-12-22T10:58:56;32.80;;;29.80;;
25111;SDS011;13092;51.996;4.458;2023-12-22T11:01:27;32.28;;;29.63;;
25111;SDS011;13092;51.996;4.458;2023-12-22T11:03:58;33.20;;;29.83;;
25111;SDS011;13092;51.996;4.458;2023-12-22T11:06:30;31.38;;;28.70;;
25111;SDS011;13092;51.996;4.458;2023-12-22T11:09:03;32.10;;;29.40;;
25111;SDS011;13092;51.996;4.458;2023-12-22T11:11:36;31.40;;;28.67;;
25111;SDS011;13092;51.996;4.458;2023-12-22T11:14:06;32.78;;;29.98;;
25111;SDS011;13092;51.996;4.458;2023-12-22T11:16:37;33.63;;;30.13;;
25111;SDS011;13092;51.996;4.458;2023-12-22T11:19:14;33.03;;;30.20;;
25111;SDS011;13092;51.996;4.458;2023-12-22T11:21:43;32.85;;;30.15;;
25111;SDS011;13092;51.996;4.458;2023-12-22T11:24:12;31.90;;;29.27;;
25111;SDS011;13092;51.996;4.458;2023-12-22T11:26:42;37.85;;;30.48;;
25111;SDS011;13092;51.996;4.458;2023-12-22T11:29:15;33.17;;;30.33;;
25111;SDS011;13092;51.996;4.458;2023-12-22T11:31:50;33.13;;;30.23;;
25111;SDS011;13092;51.996;4.458;2023-12-22T11:34:22;33.22;;;30.52;;
25111;SDS011;13092;51.996;4.458;2023-12-22T11:36:53;33.47;;;30.67;;
25111;SDS011;13092;51.996;4.458;2023-12-22T11:39:22;33.40;;;30.60;;
25111;SDS011;13092;51.996;4.458;2023-12-22T11:41:51;33.70;;;30.77;;
25111;SDS011;13092;51.996;4.458;2023-12-22T11:44:21;33.75;;;30.95;;
25111;SDS011;13092;51.996;4.458;2023-12-22T11:46:51;33.35;;;30.70;;
25111;SDS011;13092;51.996;4.458;2023-12-22T11:49:31;34.00;;;31.17;;
25111;SDS011;13092;51.996;4.458;2023-12-22T11:52:10;33.97;;;31.27;;
25111;SDS011;13092;51.996;4.458;2023-12-22T11:54:49;35.35;;;32.45;;
25111;SDS011;13092;51.996;4.458;2023-12-22T11:57:34;34.40;;;31.67;;
25111;SDS011;13092;51.996;4.458;2023-12-22T12:00:37;33.35;;;30.58;;
25111;SDS011;13092;51.996;4.458;2023-12-22T12:03:08;31.58;;;29.08;;
25111;SDS011;13092;51.996;4.458;2023-12-22T12:05:38;32.05;;;29.58;;
25111;SDS011;13092;51.996;4.458;2023-12-22T12:08:07;33.85;;;30.75;;
25111;SDS011;13092;51.996;4.458;2023-12-22T12:10:51;32.95;;;30.35;;
25111;SDS011;13092;51.996;4.458;2023-12-22T12:13:22;32.83;;;29.98;;
25111;SDS011;13092;51.996;4.458;2023-12-22T12:15:52;32.63;;;29.52;;
25111;SDS011;13092;51.996;4.458;2023-12-22T12:18:24;33.25;;;30.27;;
25111;SDS011;13092;51.996;4.458;2023-12-22T12:20:52;32.75;;;29.90;;
25111;SDS011;13092;51.996;4.458;2023-12-22T12:23:20;33.33;;;30.52;;
25111;SDS011;13092;51.996;4.458;2023-12-22T12:25:51;33.78;;;31.00;;
25111;SDS011;13092;51.996;4.458;2023-12-22T12:28:26;32.67;;;30.08;;
25111;SDS011;13092;51.996;4.458;2023-12-22T12:30:57;33.88;;;31.10;;
25111;SDS011;13092;51.996;4.458;2023-12-22T12:33:28;34.38;;;31.23;;
25111;SDS011;13092;51.996;4.458;2023-12-22T12:35:57;34.55;;;31.58;;
25111;SDS011;13092;51.996;4.458;2023-12-22T12:38:31;33.70;;;31.00;;
25111;SDS011;13092;51.996;4.458;2023-12-22T12:41:04;34.38;;;31.23;;
25111;SDS011;13092;51.996;4.458;2023-12-22T12:43:33;34.08;;;31.25;;
25111;SDS011;13092;51.996;4.458;2023-12-22T12:46:04;32.40;;;29.70;;
25111;SDS011;13092;51.996;4.458;2023-12-22T12:48:34;32.22;;;29.48;;
25111;SDS011;13092;51.996;4.458;2023-12-22T12:51:03;34.75;;;31.65;;
25111;SDS011;13092;51.996;4.458;2023-12-22T12:53:32;33.08;;;30.23;;
25111;SDS011;13092;51.996;4.458;2023-12-22T12:56:01;33.92;;;31.23;;
25111;SDS011;13092;51.996;4.458;2023-12-22T12:58:30;35.00;;;31.80;;
25111;SDS011;13092;51.996;4.458;2023-12-22T13:01:06;33.65;;;30.40;;
25111;SDS011;13092;51.996;4.458;2023-12-22T13:03:54;32.72;;;30.02;;
25111;SDS011;13092;51.996;4.458;2023-12-22T13:06:23;39.85;;;30.75;;
25111;SDS011;13092;51.996;4.458;2023-12-22T13:08:50;33.38;;;30.33;;
25111;SDS011;13092;51.996;4.458;2023-12-22T13:11:20;44.33;;;31.20;;
25111;SDS011;13092;51.996;4.458;2023-12-22T13:13:49;34.45;;;31.17;;
25111;SDS011;13092;51.996;4.458;2023-12-22T13:16:19;33.60;;;30.50;;
25111;SDS011;13092;51.996;4.458;2023-12-22T13:18:48;33.13;;;30.20;;
25111;SDS011;13092;51.996;4.458;2023-12-22T13:21:18;33.47;;;30.67;;
25111;SDS011;13092;51.996;4.458;2023-12-22T13:23:46;34.90;;;31.60;;
25111;SDS011;13092;51.996;4.458;2023-12-22T13:26:18;32.83;;;29.77;;
25111;SDS011;13092;51.996;4.458;2023-12-22T13:28:46;32.90;;;30.10;;
25111;SDS011;13092;51.996;4.458;2023-12-22T13:31:14;33.63;;;30.42;;
25111;SDS011;13092;51.996;4.458;2023-12-22T13:33:44;32.92;;;30.23;;
25111;SDS011;13092;51.996;4.458;2023-12-22T13:36:13;32.05;;;28.98;;
25111;SDS011;13092;51.996;4.458;2023-12-22T13:38:46;32.83;;;29.92;;
25111;SDS011;13092;51.996;4.458;2023-12-22T13:41:14;32.95;;;30.15;;
25111;SDS011;13092;51.996;4.458;2023-12-22T13:43:44;33.42;;;30.30;;
25111;SDS011;13092;51.996;4.458;2023-12-22T13:46:13;33.63;;;30.70;;
25111;SDS011;13092;51.996;4.458;2023-12-22T13:48:42;33.83;;;30.67;;
25111;SDS011;13092;51.996;4.458;2023-12-22T13:51:10;33.47;;;30.92;;
25111;SDS011;13092;51.996;4.458;2023-12-22T13:53:50;34.65;;;31.50;;
25111;SDS011;13092;51.996;4.458;2023-12-22T13:56:18;34.08;;;30.95;;
25111;SDS011;13092;51.996;4.458;2023-12-22T13:58:47;34.92;;;31.88;;
25111;SDS011;13092;51.996;4.458;2023-12-22T14:01:16;34.22;;;31.00;;
25111;SDS011;13092;51.996;4.458;2023-12-22T14:03:47;33.63;;;30.70;;
25111;SDS011;13092;51.996;4.458;2023-12-22T14:06:15;34.05;;;30.75;;
25111;SDS011;13092;51.996;4.458;2023-12-22T14:08:44;35.05;;;32.15;;
25111;SDS011;13092;51.996;4.458;2023-12-22T14:11:14;34.63;;;31.83;;
25111;SDS011;13092;51.996;4.458;2023-12-22T14:13:42;34.63;;;31.45;;
25111;SDS011;13092;51.996;4.458;2023-12-22T14:16:10;35.58;;;31.83;;
25111;SDS011;13092;51.996;4.458;2023-12-22T14:18:39;34.08;;;31.05;;
25111;SDS011;13092;51.996;4.458;2023-12-22T14:21:08;35.15;;;31.73;;
25111;SDS011;13092;51.996;4.458;2023-12-22T14:23:36;34.72;;;31.42;;
25111;SDS011;13092;51.996;4.458;2023-12-22T14:26:05;33.95;;;31.15;;
25111;SDS011;13092;51.996;4.458;2023-12-22T14:28:35;33.55;;;30.52;;
25111;SDS011;13092;51.996;4.458;2023-12-22T14:31:03;34.90;;;31.17;;
25111;SDS011;13092;51.996;4.458;2023-12-22T14:33:32;32.85;;;30.15;;
25111;SDS011;13092;51.996;4.458;2023-12-22T14:36:00;34.75;;;31.25;;
25111;SDS011;13092;51.996;4.458;2023-12-22T14:38:29;34.05;;;31.20;;
25111;SDS011;13092;51.996;4.458;2023-12-22T14:40:57;33.17;;;30.17;;
25111;SDS011;13092;51.996;4.458;2023-12-22T14:43:25;33.28;;;30.50;;
25111;SDS011;13092;51.996;4.458;2023-12-22T14:45:56;32.45;;;29.75;;